Time;durP1;ratioP1;P1;durP2;ratioP2;P2;SDS_P1;SDS_P2;PMS_P1;PMS_P2;Temp;Humidity;BMP_temperature;BMP_pressure;BME280_temperature;BME280_humidity;BME280_pressure;Samples;Min_cycle;Max_cycle;Signal;HPM_P1;HPM_P2
2024/04/06 00:00:11;;;;;;;15.68;2.83;;;;;;;;;;6184419;23;20493;-94
2024/04/06 00:02:37;;;;;;;5.55;1.20;;;;;;;;;;6183164;23;20436;-95
2024/04/06 00:05:03;;;;;;;10.15;1.48;;;;;;;;;;6183179;23;20004;-94
2024/04/06 00:07:28;;;;;;;6.50;1.55;;;;;;;;;;6183457;23;20060;-96
2024/04/06 00:09:54;;;;;;;6.20;1.90;;;;;;;;;;6183290;23;20001;-94
2024/04/06 00:12:19;;;;;;;5.63;1.80;;;;;;;;;;6183228;23;20416;-94
2024/04/06 00:14:44;;;;;;;9.82;1.77;;;;;;;;;;6182774;23;20797;-94
2024/04/06 00:17:09;;;;;;;4.40;1.40;;;;;;;;;;6182865;23;20017;-96
2024/04/06 00:19:35;;;;;;;9.50;1.60;;;;;;;;;;6184566;23;20005;-96
2024/04/06 00:22:00;;;;;;;9.80;2.25;;;;;;;;;;6177651;23;20272;-95
2024/04/06 00:24:25;;;;;;;6.53;1.15;;;;;;;;;;6211903;23;20088;-95
2024/04/06 00:26:51;;;;;;;7.15;1.27;;;;;;;;;;6211831;23;20004;-95
2024/04/06 00:29:16;;;;;;;8.07;1.38;;;;;;;;;;6211501;23;20047;-93
2024/04/06 00:31:42;;;;;;;5.83;1.10;;;;;;;;;;6211531;23;20004;-95
2024/04/06 00:34:07;;;;;;;8.60;1.97;;;;;;;;;;6211372;23;20346;-94
2024/04/06 00:36:32;;;;;;;5.10;1.70;;;;;;;;;;6211563;23;20285;-93
2024/04/06 00:38:58;;;;;;;4.30;1.40;;;;;;;;;;6214772;23;19993;-96
2024/04/06 00:41:57;;;;;;;5.55;1.25;;;;;;;;;;6230700;23;20226;-96
2024/04/06 00:44:30;;;;;;;10.93;1.65;;;;;;;;;;6171589;23;20062;-96
2024/04/06 00:47:02;;;;;;;14.00;3.13;;;;;;;;;;6234366;23;20325;-96
2024/04/06 00:49:32;;;;;;;;;;;;;;;;;;6238248;23;20065;-96
2024/04/06 00:52:06;;;;;;;5.45;1.48;;;;;;;;;;6214574;23;19891;-96
2024/04/06 00:55:04;;;;;;;6.03;1.48;;;;;;;;;;6233855;23;20000;-96
2024/04/06 00:57:36;;;;;;;6.80;1.40;;;;;;;;;;6237408;23;20052;-96
2024/04/06 01:00:06;;;;;;;10.30;2.10;;;;;;;;;;6207308;23;20008;-96
2024/04/06 01:02:42;;;;;;;10.75;2.30;;;;;;;;;;6208119;23;20027;-96
2024/04/06 01:05:12;;;;;;;7.00;2.03;;;;;;;;;;6207885;23;20054;-96
2024/04/06 01:07:42;;;;;;;11.07;1.10;;;;;;;;;;6208180;23;20001;-96
2024/04/06 01:10:10;;;;;;;15.10;2.10;;;;;;;;;;6209152;23;19988;-96
2024/04/06 01:12:43;;;;;;;9.55;2.17;;;;;;;;;;6205053;23;19989;-96
2024/04/06 01:15:15;;;;;;;6.68;1.67;;;;;;;;;;6209347;23;20020;-96
2024/04/06 01:17:41;;;;;;;6.70;1.70;;;;;;;;;;6208614;23;20015;-96
2024/04/06 01:20:13;;;;;;;8.77;2.17;;;;;;;;;;6208435;23;19981;-96
2024/04/06 01:22:47;;;;;;;8.45;2.20;;;;;;;;;;5545066;23;15091249;-96
2024/04/06 01:25:21;;;;;;;6.80;1.60;;;;;;;;;;6180198;23;20001;-96
2024/04/06 01:27:46;;;;;;;5.95;1.42;;;;;;;;;;6178897;23;20440;-96
2024/04/06 01:30:46;;;;;;;8.82;1.63;;;;;;;;;;6179418;23;20024;-96
2024/04/06 01:36:42;;;;;;;6.43;2.00;;;;;;;;;;6183015;23;20017;-96
2024/04/06 01:39:43;;;;;;;10.77;2.88;;;;;;;;;;6179168;22;21100;-95
2024/04/06 01:42:08;;;;;;;9.95;2.28;;;;;;;;;;6235290;23;20011;-95
2024/04/06 01:44:36;;;;;;;6.38;1.63;;;;;;;;;;6239297;23;20004;-96
2024/04/06 01:47:08;;;;;;;9.82;2.10;;;;;;;;;;6247039;23;19997;-96
2024/04/06 01:49:33;;;;;;;;;;;;;;;;;;6240115;23;20001;-96
2024/04/06 01:52:02;;;;;;;10.17;2.33;;;;;;;;;;6236632;23;19907;-96
2024/04/06 01:54:37;;;;;;;8.73;1.50;;;;;;;;;;6237534;23;20227;-96
2024/04/06 01:57:06;;;;;;;4.75;1.33;;;;;;;;;;6261946;22;20062;-96
2024/04/06 01:59:35;;;;;;;8.38;1.55;;;;;;;;;;6261371;23;20004;-96
2024/04/06 02:02:02;;;;;;;7.00;1.40;;;;;;;;;;6262012;23;20064;-96
2024/04/06 02:04:30;;;;;;;7.90;1.90;;;;;;;;;;6239588;23;20000;-95
2024/04/06 02:06:56;;;;;;;8.65;1.70;;;;;;;;;;6263311;22;20135;-95
2024/04/06 02:09:24;;;;;;;11.30;1.58;;;;;;;;;;6232822;23;20004;-96
2024/04/06 02:11:50;;;;;;;10.93;2.90;;;;;;;;;;6255920;23;20011;-96
2024/04/06 02:14:15;;;;;;;5.13;1.33;;;;;;;;;;6254303;22;20001;-96
2024/04/06 02:16:40;;;;;;;6.32;1.65;;;;;;;;;;6254196;22;20335;-96
2024/04/06 02:19:06;;;;;;;5.53;1.42;;;;;;;;;;6250038;23;20059;-96
2024/04/06 02:21:31;;;;;;;5.88;1.25;;;;;;;;;;6249889;23;19996;-96
2024/04/06 02:23:57;;;;;;;8.95;2.03;;;;;;;;;;6248859;23;19997;-96
2024/04/06 02:26:23;;;;;;;6.57;1.52;;;;;;;;;;6249470;22;19992;-96
2024/04/06 02:28:48;;;;;;;3.95;1.27;;;;;;;;;;6249946;23;20071;-96
2024/04/06 02:31:16;;;;;;;5.97;2.13;;;;;;;;;;6251841;23;20077;-96
2024/04/06 02:33:42;;;;;;;7.00;1.60;;;;;;;;;;6252471;23;19996;-96
2024/04/06 02:36:09;;;;;;;11.85;1.45;;;;;;;;;;6251091;23;20066;-95
2024/04/06 02:38:34;;;;;;;5.60;1.25;;;;;;;;;;6252523;23;20378;-96
2024/04/06 02:41:00;;;;;;;9.48;1.77;;;;;;;;;;6253709;23;20032;-96
2024/04/06 02:43:25;;;;;;;8.88;1.48;;;;;;;;;;6256156;23;20007;-96
2024/04/06 02:45:51;;;;;;;5.43;1.45;;;;;;;;;;6255511;23;20068;-96
2024/04/06 02:48:16;;;;;;;19.17;1.80;;;;;;;;;;6254624;22;20000;-96
2024/04/06 02:50:44;;;;;;;6.03;1.75;;;;;;;;;;6254291;23;20016;-96
2024/04/06 02:53:10;;;;;;;8.73;2.22;;;;;;;;;;6253022;23;19996;-96
2024/04/06 02:55:44;;;;;;;3.63;1.17;;;;;;;;;;6253559;23;20039;-96
2024/04/06 02:58:13;;;;;;;5.90;1.25;;;;;;;;;;6253319;22;19997;-96
2024/04/06 03:00:38;;;;;;;4.75;1.30;;;;;;;;;;6250609;23;20031;-95
2024/04/06 03:03:04;;;;;;;6.57;1.63;;;;;;;;;;6251867;23;20000;-95
2024/04/06 03:05:29;;;;;;;9.10;1.15;;;;;;;;;;6251403;23;20000;-96
2024/04/06 03:07:55;;;;;;;6.57;1.85;;;;;;;;;;6250174;22;19989;-95
2024/04/06 03:10:20;;;;;;;7.63;1.52;;;;;;;;;;6250904;23;19996;-96
2024/04/06 03:12:49;;;;;;;6.60;1.20;;;;;;;;;;6254741;23;20052;-95
2024/04/06 03:15:17;;;;;;;6.80;1.60;;;;;;;;;;6256772;23;20008;-96
2024/04/06 03:17:43;;;;;;;6.18;1.30;;;;;;;;;;6256650;22;20036;-96
2024/04/06 03:20:13;;;;;;;9.27;1.40;;;;;;;;;;6256211;23;20008;-96
2024/04/06 03:22:38;;;;;;;4.55;1.33;;;;;;;;;;6256294;23;20000;-95
2024/04/06 03:25:04;;;;;;;10.63;1.40;;;;;;;;;;6255846;23;19997;-96
2024/04/06 03:27:32;;;;;;;5.97;1.17;;;;;;;;;;6228685;23;20015;-96
2024/04/06 03:29:59;;;;;;;4.25;1.70;;;;;;;;;;6230914;23;20043;-96
2024/04/06 03:32:24;;;;;;;7.07;1.27;;;;;;;;;;6253301;23;20001;-96
2024/04/06 03:34:50;;;;;;;9.30;1.45;;;;;;;;;;6256431;23;20010;-96
2024/04/06 03:37:15;;;;;;;4.90;1.55;;;;;;;;;;6232623;23;20008;-96
2024/04/06 03:39:41;;;;;;;4.63;1.42;;;;;;;;;;6259283;23;20027;-96
2024/04/06 03:42:06;;;;;;;4.60;1.10;;;;;;;;;;6258588;23;20028;-96
2024/04/06 03:44:33;;;;;;;10.13;1.55;;;;;;;;;;6257881;23;20000;-96
2024/04/06 03:46:58;;;;;;;6.97;1.70;;;;;;;;;;6257808;22;20001;-96
2024/04/06 03:49:27;;;;;;;6.47;1.65;;;;;;;;;;6259067;23;20080;-96
2024/04/06 03:51:53;;;;;;;7.18;1.58;;;;;;;;;;6235074;23;20184;-96
2024/04/06 03:54:18;;;;;;;4.25;1.70;;;;;;;;;;6260906;23;20001;-96
2024/04/06 03:56:46;;;;;;;4.75;1.63;;;;;;;;;;6258654;22;20060;-96
2024/04/06 03:59:13;;;;;;;8.00;1.75;;;;;;;;;;6259193;23;19992;-96
2024/04/06 04:01:40;;;;;;;5.50;1.67;;;;;;;;;;6259681;23;20080;-95
2024/04/06 04:04:06;;;;;;;9.63;1.80;;;;;;;;;;6237005;23;19996;-96
2024/04/06 04:06:35;;;;;;;10.60;3.55;;;;;;;;;;6259719;22;20086;-96
2024/04/06 04:09:06;;;;;;;8.85;1.77;;;;;;;;;;6259990;23;20060;-96
2024/04/06 04:11:31;;;;;;;10.85;1.67;;;;;;;;;;6260876;23;20027;-96
2024/04/06 04:13:57;;;;;;;6.70;1.70;;;;;;;;;;6259848;23;20004;-95
2024/04/06 04:16:22;;;;;;;5.30;1.88;;;;;;;;;;6259165;23;20013;-96
2024/04/06 04:18:52;;;;;;;10.35;1.30;;;;;;;;;;6263609;23;19998;-96
2024/04/06 04:21:20;;;;;;;6.43;1.45;;;;;;;;;;6240592;23;20000;-96
2024/04/06 04:23:46;;;;;;;7.40;1.85;;;;;;;;;;6240118;23;20001;-96
2024/04/06 04:26:23;;;;;;;9.73;1.50;;;;;;;;;;6268237;22;20015;-95
2024/04/06 04:28:49;;;;;;;5.18;1.70;;;;;;;;;;6239429;23;20004;-96
2024/04/06 04:31:16;;;;;;;12.07;2.08;;;;;;;;;;6265363;23;20000;-95
2024/04/06 04:33:43;;;;;;;7.70;1.65;;;;;;;;;;6265481;22;20024;-96
2024/04/06 04:36:18;;;;;;;10.10;2.08;;;;;;;;;;6264799;23;19992;-96
2024/04/06 04:39:05;;;;;;;7.28;1.50;;;;;;;;;;6241207;23;19988;-96
2024/04/06 04:41:32;;;;;;;4.72;1.67;;;;;;;;;;6265598;23;20008;-96
2024/04/06 04:43:58;;;;;;;7.68;1.77;;;;;;;;;;6263343;23;19996;-95
2024/04/06 04:46:24;;;;;;;5.78;1.70;;;;;;;;;;6264059;22;19997;-96
2024/04/06 04:48:54;;;;;;;9.13;2.35;;;;;;;;;;6266316;22;20008;-95
2024/04/06 04:51:23;;;;;;;5.95;1.75;;;;;;;;;;6239343;23;20004;-96
2024/04/06 04:54:00;;;;;;;11.93;2.50;;;;;;;;;;6240708;23;20019;-96
2024/04/06 04:56:28;;;;;;;6.72;1.48;;;;;;;;;;6241791;23;20008;-96
2024/04/06 04:58:55;;;;;;;9.10;2.05;;;;;;;;;;6239818;23;20008;-96
2024/04/06 05:01:28;;;;;;;9.50;1.83;;;;;;;;;;6237693;23;20005;-96
2024/04/06 05:03:55;;;;;;;8.07;1.77;;;;;;;;;;6263867;23;20001;-96
2024/04/06 05:06:22;;;;;;;6.75;2.85;;;;;;;;;;6261656;23;20012;-96
2024/04/06 05:08:53;;;;;;;8.77;1.70;;;;;;;;;;6263435;23;20048;-96
2024/04/06 05:11:20;;;;;;;9.30;1.95;;;;;;;;;;6262138;23;19992;-96
2024/04/06 05:13:48;;;;;;;16.55;2.00;;;;;;;;;;6263158;23;20051;-96
2024/04/06 05:16:13;;;;;;;8.85;1.77;;;;;;;;;;6262703;23;20012;-96
2024/04/06 05:18:39;;;;;;;7.78;2.22;;;;;;;;;;6236803;23;20004;-96
2024/04/06 05:21:06;;;;;;;10.02;1.85;;;;;;;;;;6236476;23;19997;-96
2024/04/06 05:23:31;;;;;;;7.40;1.88;;;;;;;;;;6260398;23;20007;-95
2024/04/06 05:26:00;;;;;;;12.32;2.20;;;;;;;;;;6259780;23;20027;-96
2024/04/06 05:28:26;;;;;;;8.30;1.65;;;;;;;;;;6236373;23;20003;-96
2024/04/06 05:30:53;;;;;;;11.45;2.28;;;;;;;;;;6237207;23;20080;-96
2024/04/06 05:33:20;;;;;;;9.38;2.33;;;;;;;;;;6257578;23;20027;-96
2024/04/06 05:35:49;;;;;;;5.13;1.80;;;;;;;;;;6250565;23;20008;-96
2024/04/06 05:38:15;;;;;;;14.63;2.45;;;;;;;;;;6252187;22;20024;-96
2024/04/06 05:40:42;;;;;;;7.82;2.58;;;;;;;;;;6250420;23;20084;-96
2024/04/06 05:43:08;;;;;;;11.85;2.42;;;;;;;;;;6251513;23;20047;-96
2024/04/06 05:45:33;;;;;;;9.63;2.30;;;;;;;;;;6249907;23;20008;-96
2024/04/06 05:48:03;;;;;;;10.82;2.90;;;;;;;;;;6252740;22;20416;-96
2024/04/06 05:50:34;;;;;;;10.10;2.80;;;;;;;;;;6254386;23;20068;-96
2024/04/06 05:52:59;;;;;;;7.10;1.95;;;;;;;;;;6254689;23;20075;-96
2024/04/06 05:55:25;;;;;;;6.88;2.70;;;;;;;;;;6251376;23;20031;-95
2024/04/06 05:57:51;;;;;;;9.32;2.70;;;;;;;;;;6251105;22;19996;-96
2024/04/06 06:00:19;;;;;;;8.35;2.85;;;;;;;;;;6250401;23;20005;-96
2024/04/06 06:02:45;;;;;;;6.25;2.10;;;;;;;;;;6252343;23;19997;-95
2024/04/06 06:05:11;;;;;;;10.80;2.53;;;;;;;;;;6247037;23;20004;-95
2024/04/06 06:07:39;;;;;;;13.20;2.65;;;;;;;;;;6249614;22;20001;-96
2024/04/06 06:10:05;;;;;;;13.77;4.10;;;;;;;;;;6247685;23;20011;-96
2024/04/06 06:12:34;;;;;;;9.73;2.78;;;;;;;;;;6225527;23;19993;-95
2024/04/06 06:14:59;;;;;;;21.00;3.05;;;;;;;;;;6245409;23;20009;-96
2024/04/06 06:17:24;;;;;;;8.65;2.60;;;;;;;;;;6243647;22;20097;-95
2024/04/06 06:19:50;;;;;;;17.00;3.17;;;;;;;;;;6215830;23;20467;-96
2024/04/06 06:22:15;;;;;;;14.15;3.28;;;;;;;;;;6242128;23;20016;-95
2024/04/06 06:24:41;;;;;;;13.68;3.47;;;;;;;;;;6243271;23;20497;-96
2024/04/06 06:27:07;;;;;;;16.13;3.13;;;;;;;;;;6242519;22;20096;-95
2024/04/06 06:29:33;;;;;;;14.18;3.08;;;;;;;;;;6243142;23;20470;-96
2024/04/06 06:32:01;;;;;;;17.88;2.78;;;;;;;;;;6247765;23;20001;-95
2024/04/06 06:34:27;;;;;;;13.00;3.13;;;;;;;;;;6255206;23;20020;-96
2024/04/06 06:36:52;;;;;;;10.50;2.45;;;;;;;;;;6256199;22;20008;-93
2024/04/06 06:39:18;;;;;;;14.25;3.05;;;;;;;;;;6223249;23;20068;-95
2024/04/06 06:41:45;;;;;;;21.55;4.30;;;;;;;;;;6242744;23;20019;-95
2024/04/06 06:47:07;;;;;;;11.95;2.80;;;;;;;;;;6193498;22;19912;-96
2024/04/06 06:49:39;;;;;;;17.15;3.30;;;;;;;;;;6193597;23;20005;-96
2024/04/06 06:52:07;;;;;;;13.68;3.47;;;;;;;;;;6197641;23;20003;-96
2024/04/06 06:54:34;;;;;;;9.40;2.75;;;;;;;;;;6237011;23;19997;-96
2024/04/06 06:56:59;;;;;;;18.83;3.40;;;;;;;;;;6212706;23;20023;-96
2024/04/06 06:59:25;;;;;;;15.85;4.00;;;;;;;;;;6222491;23;20000;-90
2024/04/06 07:01:50;;;;;;;15.98;3.50;;;;;;;;;;6213113;23;20024;-93
2024/04/06 07:04:15;;;;;;;14.85;3.65;;;;;;;;;;6213818;23;20435;-92
2024/04/06 07:06:41;;;;;;;15.80;3.75;;;;;;;;;;6216886;23;20028;-96
2024/04/06 07:09:08;;;;;;;13.35;3.13;;;;;;;;;;6222197;23;20000;-96
2024/04/06 07:11:34;;;;;;;13.23;3.70;;;;;;;;;;6219279;23;19997;-95
2024/04/06 07:14:00;;;;;;;13.32;2.67;;;;;;;;;;6215265;23;20094;-96
2024/04/06 07:16:25;;;;;;;22.10;3.88;;;;;;;;;;6215275;23;20063;-95
2024/04/06 07:18:50;;;;;;;18.58;3.50;;;;;;;;;;6215248;23;20004;-96
2024/04/06 07:21:16;;;;;;;13.63;4.15;;;;;;;;;;6216196;23;20001;-94
2024/04/06 07:23:42;;;;;;;14.32;3.58;;;;;;;;;;6219910;23;19996;-94
2024/04/06 07:26:07;;;;;;;19.40;3.35;;;;;;;;;;6215716;23;20000;-95
2024/04/06 07:28:33;;;;;;;14.57;3.33;;;;;;;;;;6222119;23;20001;-95
2024/04/06 07:30:59;;;;;;;17.92;3.28;;;;;;;;;;6219601;23;20027;-94
2024/04/06 07:33:24;;;;;;;13.33;3.40;;;;;;;;;;6209898;23;20016;-95
2024/04/06 07:35:50;;;;;;;14.25;3.13;;;;;;;;;;6195010;23;20255;-96
2024/04/06 07:38:15;;;;;;;10.85;2.85;;;;;;;;;;6189624;23;20008;-96
2024/04/06 07:40:40;;;;;;;17.33;3.45;;;;;;;;;;6186105;23;20035;-94
2024/04/06 07:43:06;;;;;;;18.17;3.58;;;;;;;;;;6188876;23;19997;-95
2024/04/06 07:45:31;;;;;;;18.65;4.03;;;;;;;;;;6201556;23;20027;-95
2024/04/06 07:47:56;;;;;;;19.90;3.20;;;;;;;;;;6164796;23;20001;-96
2024/04/06 07:50:22;;;;;;;15.82;3.40;;;;;;;;;;6184571;23;20442;-96
2024/04/06 07:52:47;;;;;;;16.00;3.42;;;;;;;;;;6183246;23;20024;-96
2024/04/06 07:55:12;;;;;;;12.75;3.35;;;;;;;;;;6184559;23;20104;-96
2024/04/06 07:57:37;;;;;;;16.50;3.47;;;;;;;;;;6184148;23;20445;-95
2024/04/06 08:00:03;;;;;;;18.15;4.03;;;;;;;;;;6186308;23;20004;-95
2024/04/06 08:02:29;;;;;;;18.20;4.03;;;;;;;;;;6186305;23;20016;-95
2024/04/06 08:04:56;;;;;;;16.95;3.50;;;;;;;;;;6186005;23;20980;-95
2024/04/06 08:07:24;;;;;;;15.38;3.50;;;;;;;;;;6185922;23;20008;-96
2024/04/06 08:09:50;;;;;;;13.15;3.13;;;;;;;;;;6185857;23;20001;-96
2024/04/06 08:12:15;;;;;;;18.83;3.25;;;;;;;;;;6186555;23;20491;-91
2024/04/06 08:14:40;;;;;;;22.05;4.05;;;;;;;;;;6185285;23;20000;-91
2024/04/06 08:17:06;;;;;;;20.50;4.53;;;;;;;;;;6159137;23;20016;-92
2024/04/06 08:19:31;;;;;;;24.83;3.42;;;;;;;;;;6184560;23;19997;-92
2024/04/06 08:21:56;;;;;;;22.90;3.80;;;;;;;;;;6184946;23;20001;-94
2024/04/06 08:24:21;;;;;;;22.05;3.58;;;;;;;;;;6184718;23;19997;-92
2024/04/06 08:26:49;;;;;;;21.13;4.23;;;;;;;;;;6178260;23;20016;-96
2024/04/06 08:29:19;;;;;;;14.30;3.17;;;;;;;;;;6208238;23;20222;-96
2024/04/06 08:31:52;;;;;;;17.23;3.22;;;;;;;;;;6207970;23;20005;-96
2024/04/06 08:34:23;;;;;;;27.05;3.70;;;;;;;;;;6207680;23;20005;-96
2024/04/06 08:36:56;;;;;;;14.13;2.80;;;;;;;;;;6174994;23;20024;-96
2024/04/06 08:39:23;;;;;;;20.20;4.15;;;;;;;;;;6207198;23;20005;-96
2024/04/06 08:41:49;;;;;;;23.83;5.15;;;;;;;;;;6192510;23;20008;-96
2024/04/06 08:44:20;;;;;;;19.95;3.85;;;;;;;;;;6195349;23;20005;-96
2024/04/06 08:46:45;;;;;;;22.08;3.83;;;;;;;;;;6201697;23;20072;-96
2024/04/06 08:49:12;;;;;;;18.48;3.45;;;;;;;;;;6193045;23;20008;-96
2024/04/06 08:51:41;;;;;;;15.50;3.15;;;;;;;;;;6191603;23;20074;-96
2024/04/06 08:54:07;;;;;;;19.83;3.60;;;;;;;;;;6193467;23;20331;-96
2024/04/06 08:56:32;;;;;;;17.48;3.80;;;;;;;;;;6185071;23;20032;-91
2024/04/06 08:58:58;;;;;;;19.35;3.85;;;;;;;;;;6183458;23;20008;-93
2024/04/06 09:01:25;;;;;;;18.05;4.10;;;;;;;;;;6186113;23;20060;-94
2024/04/06 09:03:58;;;;;;;13.73;3.08;;;;;;;;;;6195491;23;20005;-93
2024/04/06 09:06:28;;;;;;;13.02;2.97;;;;;;;;;;6192721;23;20005;-96
2024/04/06 09:08:53;;;;;;;17.33;3.58;;;;;;;;;;6189197;23;20032;-96
2024/04/06 09:11:18;;;;;;;19.48;3.72;;;;;;;;;;6185189;23;20359;-91
2024/04/06 09:14:03;;;;;;;21.90;3.33;;;;;;;;;;6196498;23;20024;-96
2024/04/06 09:16:31;;;;;;;18.60;3.22;;;;;;;;;;6219449;23;20012;-96
2024/04/06 09:18:56;;;;;;;22.40;3.15;;;;;;;;;;6241206;23;20091;-94
2024/04/06 09:21:22;;;;;;;25.75;3.45;;;;;;;;;;6240302;23;20438;-94
2024/04/06 09:23:50;;;;;;;12.50;2.25;;;;;;;;;;6241205;23;20016;-95
2024/04/06 09:26:20;;;;;;;13.18;3.00;;;;;;;;;;6241961;23;20009;-96
2024/04/06 09:28:47;;;;;;;11.65;2.58;;;;;;;;;;6242146;23;20004;-96
2024/04/06 09:31:14;;;;;;;19.45;3.03;;;;;;;;;;6240955;23;20438;-96
2024/04/06 09:33:41;;;;;;;15.98;3.22;;;;;;;;;;6240769;23;19996;-95
2024/04/06 09:36:09;;;;;;;20.65;3.08;;;;;;;;;;6246285;23;20015;-95
2024/04/06 09:38:37;;;;;;;15.55;2.65;;;;;;;;;;6243498;23;20001;-96
2024/04/06 09:41:03;;;;;;;11.55;2.88;;;;;;;;;;6247497;23;20084;-96
2024/04/06 09:43:34;;;;;;;11.43;2.63;;;;;;;;;;6250181;23;20087;-96
2024/04/06 09:45:59;;;;;;;15.00;2.80;;;;;;;;;;6242391;23;20483;-92
2024/04/06 09:48:25;;;;;;;15.25;2.65;;;;;;;;;;6213054;23;20070;-93
2024/04/06 09:50:50;;;;;;;13.75;2.75;;;;;;;;;;6239507;23;20351;-94
2024/04/06 09:53:16;;;;;;;13.70;3.08;;;;;;;;;;6238920;23;20466;-95
2024/04/06 09:55:41;;;;;;;18.17;3.58;;;;;;;;;;6240620;23;20247;-93
2024/04/06 09:58:10;;;;;;;19.13;3.20;;;;;;;;;;6239692;22;20028;-94
2024/04/06 10:00:35;;;;;;;14.00;2.75;;;;;;;;;;6239739;23;20012;-93
2024/04/06 10:03:01;;;;;;;16.48;2.78;;;;;;;;;;6239419;23;20001;-94
2024/04/06 10:05:42;;;;;;;22.92;3.75;;;;;;;;;;6239651;23;20044;-95
2024/04/06 10:08:10;;;;;;;19.77;3.15;;;;;;;;;;6238702;22;20587;-94
2024/04/06 10:10:44;;;;;;;14.10;2.28;;;;;;;;;;6215952;23;19996;-92
2024/04/06 10:13:09;;;;;;;17.10;2.13;;;;;;;;;;6215322;23;20000;-94
2024/04/06 10:15:35;;;;;;;22.80;3.10;;;;;;;;;;6239268;23;20016;-94
2024/04/06 10:18:00;;;;;;;16.02;3.17;;;;;;;;;;6240845;22;20005;-94
2024/04/06 10:20:27;;;;;;;18.70;3.05;;;;;;;;;;6239019;23;20015;-94
2024/04/06 10:22:57;;;;;;;14.73;3.95;;;;;;;;;;6242780;23;19997;-96
2024/04/06 10:25:26;;;;;;;16.52;3.15;;;;;;;;;;6243113;23;20957;-96
2024/04/06 10:27:58;;;;;;;11.77;2.20;;;;;;;;;;6241849;22;20000;-96
2024/04/06 10:30:24;;;;;;;14.73;2.63;;;;;;;;;;6241357;23;20416;-96
2024/04/06 10:32:50;;;;;;;16.88;2.72;;;;;;;;;;6240739;23;20008;-96
2024/04/06 10:35:15;;;;;;;14.68;3.53;;;;;;;;;;6241501;23;20135;-96
2024/04/06 10:37:40;;;;;;;21.25;3.33;;;;;;;;;;6241677;22;20003;-95
2024/04/06 10:40:07;;;;;;;13.98;2.55;;;;;;;;;;6238440;23;20005;-95
2024/04/06 10:42:32;;;;;;;15.00;2.22;;;;;;;;;;6239140;23;19993;-93
2024/04/06 10:44:58;;;;;;;10.97;2.20;;;;;;;;;;6238651;23;20007;-94
2024/04/06 10:47:24;;;;;;;11.23;2.87;;;;;;;;;;6239276;22;20214;-95
2024/04/06 10:49:53;;;;;;;13.10;3.35;;;;;;;;;;6239026;23;20281;-92
2024/04/06 10:52:19;;;;;;;11.60;2.05;;;;;;;;;;6238304;23;20090;-94
2024/04/06 10:54:44;;;;;;;14.45;2.75;;;;;;;;;;6214608;23;20009;-94
2024/04/06 10:57:10;;;;;;;14.30;3.42;;;;;;;;;;6238635;22;19997;-94
2024/04/06 10:59:35;;;;;;;9.80;2.08;;;;;;;;;;6238374;23;20008;-94
2024/04/06 11:02:01;;;;;;;18.35;2.83;;;;;;;;;;6214484;23;20004;-94
2024/04/06 11:04:26;;;;;;;15.25;2.67;;;;;;;;;;6238734;23;20004;-95
2024/04/06 11:06:51;;;;;;;15.82;2.38;;;;;;;;;;6238787;22;20292;-94
2024/04/06 11:09:17;;;;;;;14.05;2.80;;;;;;;;;;6238714;23;20015;-94
2024/04/06 11:11:42;;;;;;;19.27;3.47;;;;;;;;;;6238018;23;20000;-93
2024/04/06 11:14:08;;;;;;;14.70;2.53;;;;;;;;;;6214107;23;20004;-93
2024/04/06 11:16:35;;;;;;;14.85;2.85;;;;;;;;;;6238095;22;20015;-93
2024/04/06 11:19:00;;;;;;;17.05;3.13;;;;;;;;;;6238733;23;20001;-94
2024/04/06 11:21:26;;;;;;;15.02;3.10;;;;;;;;;;6238406;23;20019;-94
2024/04/06 11:23:51;;;;;;;21.25;5.15;;;;;;;;;;6238900;23;20374;-93
2024/04/06 11:26:20;;;;;;;19.50;3.05;;;;;;;;;;6238772;23;20019;-93
2024/04/06 11:28:45;;;;;;;19.60;3.75;;;;;;;;;;6214281;23;20083;-94
2024/04/06 11:31:10;;;;;;;15.10;3.05;;;;;;;;;;6238465;23;20028;-93
2024/04/06 11:33:36;;;;;;;18.40;3.10;;;;;;;;;;6238093;23;19993;-94
2024/04/06 11:36:01;;;;;;;16.50;3.35;;;;;;;;;;6238207;23;20251;-94
2024/04/06 11:38:26;;;;;;;17.60;3.47;;;;;;;;;;6238080;23;20068;-93
2024/04/06 11:40:57;;;;;;;19.10;3.40;;;;;;;;;;6238263;23;20047;-94
2024/04/06 11:43:22;;;;;;;21.58;3.67;;;;;;;;;;6215125;23;20028;-94
2024/04/06 11:45:47;;;;;;;21.85;3.92;;;;;;;;;;6237862;23;20012;-94
2024/04/06 11:48:14;;;;;;;22.20;3.50;;;;;;;;;;6238457;22;20011;-93
2024/04/06 11:50:40;;;;;;;22.52;4.03;;;;;;;;;;6238137;23;20095;-94
2024/04/06 11:53:07;;;;;;;20.08;3.50;;;;;;;;;;6238751;23;20004;-94
2024/04/06 11:55:32;;;;;;;23.40;4.28;;;;;;;;;;6238584;23;20012;-94
2024/04/06 11:57:58;;;;;;;20.00;4.00;;;;;;;;;;6239419;22;20031;-95
2024/04/06 12:00:23;;;;;;;19.60;3.55;;;;;;;;;;6239775;23;20001;-96
2024/04/06 12:02:49;;;;;;;16.73;3.80;;;;;;;;;;6238862;23;20031;-94
2024/04/06 12:05:14;;;;;;;28.88;4.57;;;;;;;;;;6239345;23;20004;-94
2024/04/06 12:07:40;;;;;;;27.45;4.25;;;;;;;;;;6242025;22;20001;-95
2024/04/06 12:10:05;;;;;;;24.88;4.63;;;;;;;;;;6239040;23;20415;-93
2024/04/06 12:12:31;;;;;;;26.20;5.95;;;;;;;;;;6239214;23;20447;-95
2024/04/06 12:14:56;;;;;;;16.77;3.50;;;;;;;;;;6221266;23;20001;-94
2024/04/06 12:17:27;;;;;;;28.00;3.88;;;;;;;;;;6245145;22;20031;-94
2024/04/06 12:19:52;;;;;;;18.30;3.10;;;;;;;;;;6238755;23;20005;-92
2024/04/06 12:22:19;;;;;;;27.25;4.38;;;;;;;;;;6238180;23;20325;-92
2024/04/06 12:24:44;;;;;;;25.55;3.97;;;;;;;;;;6237683;23;20431;-92
2024/04/06 12:27:11;;;;;;;20.73;3.20;;;;;;;;;;6237123;22;20001;-91
2024/04/06 12:29:37;;;;;;;27.13;4.85;;;;;;;;;;6212086;23;20383;-93
2024/04/06 12:32:02;;;;;;;16.20;2.87;;;;;;;;;;6237747;23;20004;-91
2024/04/06 12:34:27;;;;;;;19.80;3.95;;;;;;;;;;6212487;23;20685;-92
2024/04/06 12:36:52;;;;;;;21.93;4.40;;;;;;;;;;6237992;22;20356;-92
2024/04/06 12:39:18;;;;;;;25.30;3.67;;;;;;;;;;6238642;23;20829;-94
2024/04/06 12:41:43;;;;;;;22.75;3.63;;;;;;;;;;6238432;23;20328;-93
2024/04/06 12:44:08;;;;;;;22.87;3.20;;;;;;;;;;6213700;23;20002;-90
2024/04/06 12:46:33;;;;;;;28.73;5.50;;;;;;;;;;6215441;23;20226;-92
2024/04/06 12:48:58;;;;;;;24.63;3.90;;;;;;;;;;6214095;23;20218;-92
2024/04/06 12:51:24;;;;;;;24.23;3.40;;;;;;;;;;6216110;23;19997;-93
2024/04/06 12:53:49;;;;;;;22.70;4.10;;;;;;;;;;6215651;23;20210;-92
2024/04/06 12:56:14;;;;;;;27.40;5.90;;;;;;;;;;6213655;23;20092;-93
2024/04/06 12:58:41;;;;;;;35.10;4.57;;;;;;;;;;6238900;23;20007;-93
2024/04/06 13:01:07;;;;;;;20.60;3.63;;;;;;;;;;6213613;23;20001;-92
2024/04/06 13:03:33;;;;;;;17.20;4.07;;;;;;;;;;6214348;23;19996;-93
2024/04/06 13:06:02;;;;;;;26.70;4.35;;;;;;;;;;6239231;23;20028;-93
2024/04/06 13:08:28;;;;;;;22.13;3.65;;;;;;;;;;6239668;23;20076;-94
2024/04/06 13:10:53;;;;;;;24.13;4.15;;;;;;;;;;6240749;23;20032;-90
2024/04/06 13:13:18;;;;;;;26.85;4.88;;;;;;;;;;6214959;23;20418;-94
2024/04/06 13:15:47;;;;;;;25.27;5.53;;;;;;;;;;6239122;23;20008;-95
2024/04/06 13:18:12;;;;;;;21.83;4.28;;;;;;;;;;6239827;22;20000;-95
2024/04/06 13:20:38;;;;;;;18.42;3.90;;;;;;;;;;6239573;23;20005;-93
2024/04/06 13:23:04;;;;;;;24.23;4.22;;;;;;;;;;6238312;23;20075;-93
2024/04/06 13:25:29;;;;;;;16.35;3.53;;;;;;;;;;6240533;23;19997;-93
2024/04/06 13:27:57;;;;;;;24.83;5.63;;;;;;;;;;6240053;22;19993;-94
2024/04/06 13:30:23;;;;;;;24.13;3.83;;;;;;;;;;6239956;23;20693;-95
2024/04/06 13:32:48;;;;;;;28.63;4.47;;;;;;;;;;6240093;23;20004;-94
2024/04/06 13:35:13;;;;;;;22.85;3.47;;;;;;;;;;6239932;23;20497;-94
2024/04/06 13:37:39;;;;;;;19.45;3.47;;;;;;;;;;6240249;22;20000;-94
2024/04/06 13:40:10;;;;;;;23.10;4.03;;;;;;;;;;6240021;23;20005;-94
2024/04/06 13:42:39;;;;;;;26.75;4.95;;;;;;;;;;6240054;23;20004;-94
2024/04/06 13:45:12;;;;;;;24.50;3.97;;;;;;;;;;6215583;23;20107;-95
2024/04/06 13:47:37;;;;;;;18.70;3.80;;;;;;;;;;6239327;22;19996;-93
2024/04/06 13:50:02;;;;;;;25.85;4.38;;;;;;;;;;6240385;23;20004;-93
2024/04/06 13:52:27;;;;;;;18.65;4.15;;;;;;;;;;6240414;23;19988;-94
2024/04/06 13:54:53;;;;;;;20.83;4.07;;;;;;;;;;6240203;23;20115;-95
2024/04/06 13:57:18;;;;;;;33.40;5.13;;;;;;;;;;6240091;22;20442;-94
2024/04/06 13:59:44;;;;;;;24.58;4.57;;;;;;;;;;6240133;23;19996;-93
2024/04/06 14:02:09;;;;;;;29.33;6.28;;;;;;;;;;6240301;23;20011;-94
2024/04/06 14:04:34;;;;;;;31.42;8.15;;;;;;;;;;6239828;23;20411;-94
2024/04/06 14:06:59;;;;;;;36.83;7.77;;;;;;;;;;6239349;22;20024;-94
2024/04/06 14:09:25;;;;;;;28.23;8.23;;;;;;;;;;6239102;23;20331;-94
2024/04/06 14:11:51;;;;;;;22.38;5.95;;;;;;;;;;6239815;23;20246;-93
2024/04/06 14:14:22;;;;;;;30.92;5.25;;;;;;;;;;6215106;23;20071;-93
2024/04/06 14:16:47;;;;;;;23.85;5.00;;;;;;;;;;6239132;22;20343;-93
2024/04/06 14:19:15;;;;;;;25.85;5.68;;;;;;;;;;6238825;23;20063;-93
2024/04/06 14:21:40;;;;;;;28.77;7.47;;;;;;;;;;6238732;23;20015;-94
2024/04/06 14:24:06;;;;;;;33.08;6.35;;;;;;;;;;6239046;23;20001;-94
2024/04/06 14:26:31;;;;;;;23.10;6.53;;;;;;;;;;6238984;22;20050;-94
2024/04/06 14:28:57;;;;;;;23.13;5.00;;;;;;;;;;6238684;23;20083;-94
2024/04/06 14:31:22;;;;;;;25.95;4.72;;;;;;;;;;6213607;23;20051;-94
2024/04/06 14:33:48;;;;;;;33.33;6.32;;;;;;;;;;6238870;23;20055;-94
2024/04/06 14:36:13;;;;;;;29.77;8.17;;;;;;;;;;6238626;23;20032;-94
2024/04/06 14:38:38;;;;;;;31.77;6.57;;;;;;;;;;6238936;23;20229;-95
2024/04/06 14:41:03;;;;;;;27.65;6.55;;;;;;;;;;6239284;23;20427;-94